sensor_id;sensor_type;location;lat;lon;timestamp;temperature;humidity
7736;DHT22;3911;48.830;9.072;2022-08-21T00:00:43;25.40;53.00
7736;DHT22;3911;48.830;9.072;2022-08-21T00:03:11;25.40;52.90
7736;DHT22;3911;48.830;9.072;2022-08-21T00:05:40;25.40;52.90
7736;DHT22;3911;48.830;9.072;2022-08-21T00:08:05;25.40;52.90
7736;DHT22;3911;48.830;9.072;2022-08-21T00:10:31;25.40;52.90
7736;DHT22;3911;48.830;9.072;2022-08-21T00:12:59;25.40;52.90
7736;DHT22;3911;48.830;9.072;2022-08-21T00:15:26;25.40;52.90
7736;DHT22;3911;48.830;9.072;2022-08-21T00:17:52;25.40;52.90
7736;DHT22;3911;48.830;9.072;2022-08-21T00:20:19;25.40;52.90
7736;DHT22;3911;48.830;9.072;2022-08-21T00:22:46;25.40;52.90
7736;DHT22;3911;48.830;9.072;2022-08-21T00:25:13;25.40;52.90
7736;DHT22;3911;48.830;9.072;2022-08-21T00:27:40;25.40;52.90
7736;DHT22;3911;48.830;9.072;2022-08-21T00:30:09;25.40;52.90
7736;DHT22;3911;48.830;9.072;2022-08-21T00:32:35;25.40;52.90
7736;DHT22;3911;48.830;9.072;2022-08-21T00:35:03;25.40;52.90
7736;DHT22;3911;48.830;9.072;2022-08-21T00:37:29;25.40;52.80
7736;DHT22;3911;48.830;9.072;2022-08-21T00:39:55;25.30;52.80
7736;DHT22;3911;48.830;9.072;2022-08-21T00:42:23;25.30;53.20
7736;DHT22;3911;48.830;9.072;2022-08-21T00:44:50;25.30;52.70
7736;DHT22;3911;48.830;9.072;2022-08-21T00:47:18;25.30;52.70
7736;DHT22;3911;48.830;9.072;2022-08-21T00:49:45;25.30;52.80
7736;DHT22;3911;48.830;9.072;2022-08-21T00:52:15;25.30;52.70
7736;DHT22;3911;48.830;9.072;2022-08-21T00:54:40;25.30;52.70
7736;DHT22;3911;48.830;9.072;2022-08-21T00:57:10;25.30;52.70
7736;DHT22;3911;48.830;9.072;2022-08-21T00:59:34;25.30;52.80
7736;DHT22;3911;48.830;9.072;2022-08-21T01:02:00;25.30;52.70
7736;DHT22;3911;48.830;9.072;2022-08-21T01:04:27;25.30;52.80
7736;DHT22;3911;48.830;9.072;2022-08-21T01:06:54;25.30;52.70
7736;DHT22;3911;48.830;9.072;2022-08-21T01:09:21;25.30;52.70
7736;DHT22;3911;48.830;9.072;2022-08-21T01:11:49;25.30;52.70
7736;DHT22;3911;48.830;9.072;2022-08-21T01:14:16;25.30;52.70
7736;DHT22;3911;48.830;9.072;2022-08-21T01:16:45;25.30;53.40
7736;DHT22;3911;48.830;9.072;2022-08-21T01:19:11;25.30;52.70
7736;DHT22;3911;48.830;9.072;2022-08-21T01:21:37;25.30;52.70
7736;DHT22;3911;48.830;9.072;2022-08-21T01:24:04;25.30;52.70
7736;DHT22;3911;48.830;9.072;2022-08-21T01:26:32;25.30;52.60
7736;DHT22;3911;48.830;9.072;2022-08-21T01:29:20;25.30;52.70
7736;DHT22;3911;48.830;9.072;2022-08-21T01:31:43;25.30;52.70
7736;DHT22;3911;48.830;9.072;2022-08-21T01:34:09;25.20;52.60
7736;DHT22;3911;48.830;9.072;2022-08-21T01:36:37;25.20;52.60
7736;DHT22;3911;48.830;9.072;2022-08-21T01:39:04;25.20;52.60
7736;DHT22;3911;48.830;9.072;2022-08-21T01:41:31;25.20;52.60
7736;DHT22;3911;48.830;9.072;2022-08-21T01:43:59;25.20;52.60
7736;DHT22;3911;48.830;9.072;2022-08-21T01:46:26;25.20;52.60
7736;DHT22;3911;48.830;9.072;2022-08-21T01:48:52;25.20;52.50
7736;DHT22;3911;48.830;9.072;2022-08-21T01:51:19;25.20;52.60
7736;DHT22;3911;48.830;9.072;2022-08-21T01:53:46;25.20;52.60
7736;DHT22;3911;48.830;9.072;2022-08-21T01:56:13;25.20;52.60
7736;DHT22;3911;48.830;9.072;2022-08-21T01:58:40;25.20;52.60
7736;DHT22;3911;48.830;9.072;2022-08-21T02:01:05;25.20;52.50
7736;DHT22;3911;48.830;9.072;2022-08-21T02:03:32;25.20;52.60
7736;DHT22;3911;48.830;9.072;2022-08-21T02:05:59;25.20;52.60
7736;DHT22;3911;48.830;9.072;2022-08-21T02:08:27;25.20;52.60
7736;DHT22;3911;48.830;9.072;2022-08-21T02:10:54;25.20;52.50
7736;DHT22;3911;48.830;9.072;2022-08-21T02:13:21;25.20;52.50
7736;DHT22;3911;48.830;9.072;2022-08-21T02:15:49;25.20;53.20
7736;DHT22;3911;48.830;9.072;2022-08-21T02:18:15;25.20;52.50
7736;DHT22;3911;48.830;9.072;2022-08-21T02:20:43;25.20;52.40
7736;DHT22;3911;48.830;9.072;2022-08-21T02:23:09;25.20;52.50
7736;DHT22;3911;48.830;9.072;2022-08-21T02:25:35;25.20;52.50
7736;DHT22;3911;48.830;9.072;2022-08-21T02:28:03;25.20;52.50
7736;DHT22;3911;48.830;9.072;2022-08-21T02:30:30;25.20;52.50
7736;DHT22;3911;48.830;9.072;2022-08-21T02:32:56;25.20;52.50
7736;DHT22;3911;48.830;9.072;2022-08-21T02:35:23;25.20;52.50
7736;DHT22;3911;48.830;9.072;2022-08-21T02:37:54;25.10;52.40
7736;DHT22;3911;48.830;9.072;2022-08-21T02:40:21;25.10;52.40
7736;DHT22;3911;48.830;9.072;2022-08-21T02:42:46;25.10;52.40
7736;DHT22;3911;48.830;9.072;2022-08-21T02:45:13;25.20;52.40
7736;DHT22;3911;48.830;9.072;2022-08-21T02:47:39;25.10;52.40
7736;DHT22;3911;48.830;9.072;2022-08-21T02:50:06;25.10;52.40
7736;DHT22;3911;48.830;9.072;2022-08-21T02:52:32;25.10;52.40
7736;DHT22;3911;48.830;9.072;2022-08-21T02:55:00;25.10;52.80
7736;DHT22;3911;48.830;9.072;2022-08-21T02:57:27;25.10;52.40
7736;DHT22;3911;48.830;9.072;2022-08-21T02:59:54;25.10;52.40
7736;DHT22;3911;48.830;9.072;2022-08-21T03:02:22;25.10;52.40
7736;DHT22;3911;48.830;9.072;2022-08-21T03:04:49;25.10;52.40
7736;DHT22;3911;48.830;9.072;2022-08-21T03:07:16;25.10;52.40
7736;DHT22;3911;48.830;9.072;2022-08-21T03:09:44;25.10;53.10
7736;DHT22;3911;48.830;9.072;2022-08-21T03:12:11;25.10;52.40
7736;DHT22;3911;48.830;9.072;2022-08-21T03:14:38;25.10;52.40
7736;DHT22;3911;48.830;9.072;2022-08-21T03:17:04;25.10;52.40
7736;DHT22;3911;48.830;9.072;2022-08-21T03:19:31;25.10;52.40
7736;DHT22;3911;48.830;9.072;2022-08-21T03:21:57;25.10;52.40
7736;DHT22;3911;48.830;9.072;2022-08-21T03:24:24;25.10;52.40
7736;DHT22;3911;48.830;9.072;2022-08-21T03:26:51;25.10;52.40
7736;DHT22;3911;48.830;9.072;2022-08-21T03:29:17;25.10;52.40
7736;DHT22;3911;48.830;9.072;2022-08-21T03:31:45;25.00;52.30
7736;DHT22;3911;48.830;9.072;2022-08-21T03:34:12;25.00;52.30
7736;DHT22;3911;48.830;9.072;2022-08-21T03:36:39;25.10;52.40
7736;DHT22;3911;48.830;9.072;2022-08-21T03:39:07;25.00;52.30
7736;DHT22;3911;48.830;9.072;2022-08-21T03:41:34;25.00;52.30
7736;DHT22;3911;48.830;9.072;2022-08-21T03:44:01;25.00;52.30
7736;DHT22;3911;48.830;9.072;2022-08-21T03:46:27;25.00;52.30
7736;DHT22;3911;48.830;9.072;2022-08-21T03:48:54;25.00;53.00
7736;DHT22;3911;48.830;9.072;2022-08-21T03:51:20;25.00;53.00
7736;DHT22;3911;48.830;9.072;2022-08-21T03:53:47;25.00;52.30
7736;DHT22;3911;48.830;9.072;2022-08-21T03:56:14;25.00;52.30
7736;DHT22;3911;48.830;9.072;2022-08-21T03:58:40;25.00;52.30
7736;DHT22;3911;48.830;9.072;2022-08-21T04:01:08;25.00;52.30
7736;DHT22;3911;48.830;9.072;2022-08-21T04:03:35;25.00;52.30
7736;DHT22;3911;48.830;9.072;2022-08-21T04:06:02;24.90;52.20
7736;DHT22;3911;48.830;9.072;2022-08-21T04:08:28;25.00;52.30
7736;DHT22;3911;48.830;9.072;2022-08-21T04:10:55;25.00;52.30
7736;DHT22;3911;48.830;9.072;2022-08-21T04:13:21;25.00;52.30
7736;DHT22;3911;48.830;9.072;2022-08-21T04:15:48;25.00;52.30
7736;DHT22;3911;48.830;9.072;2022-08-21T04:18:14;24.90;52.20
7736;DHT22;3911;48.830;9.072;2022-08-21T04:20:41;24.90;52.20
7736;DHT22;3911;48.830;9.072;2022-08-21T04:23:08;24.90;52.20
7736;DHT22;3911;48.830;9.072;2022-08-21T04:25:36;24.90;52.10
7736;DHT22;3911;48.830;9.072;2022-08-21T04:28:03;24.90;52.20
7736;DHT22;3911;48.830;9.072;2022-08-21T04:30:31;24.90;52.20
7736;DHT22;3911;48.830;9.072;2022-08-21T04:32:58;24.90;52.20
7736;DHT22;3911;48.830;9.072;2022-08-21T04:35:26;24.90;52.10
7736;DHT22;3911;48.830;9.072;2022-08-21T04:37:53;24.90;52.20
7736;DHT22;3911;48.830;9.072;2022-08-21T04:40:20;24.90;52.10
7736;DHT22;3911;48.830;9.072;2022-08-21T04:42:49;24.90;52.10
7736;DHT22;3911;48.830;9.072;2022-08-21T04:45:17;24.90;52.10
7736;DHT22;3911;48.830;9.072;2022-08-21T04:47:43;24.90;52.10
7736;DHT22;3911;48.830;9.072;2022-08-21T04:50:09;24.90;52.10
7736;DHT22;3911;48.830;9.072;2022-08-21T04:52:36;24.90;52.10
7736;DHT22;3911;48.830;9.072;2022-08-21T04:55:03;24.90;52.10
7736;DHT22;3911;48.830;9.072;2022-08-21T04:57:29;24.90;52.10
7736;DHT22;3911;48.830;9.072;2022-08-21T04:59:56;24.90;52.10
7736;DHT22;3911;48.830;9.072;2022-08-21T05:02:22;24.90;52.10
7736;DHT22;3911;48.830;9.072;2022-08-21T05:04:50;24.90;52.10
7736;DHT22;3911;48.830;9.072;2022-08-21T05:07:19;24.90;52.10
7736;DHT22;3911;48.830;9.072;2022-08-21T05:09:44;24.90;52.10
7736;DHT22;3911;48.830;9.072;2022-08-21T05:12:11;24.90;52.10
7736;DHT22;3911;48.830;9.072;2022-08-21T05:14:38;24.90;52.00
7736;DHT22;3911;48.830;9.072;2022-08-21T05:17:06;24.80;52.00
7736;DHT22;3911;48.830;9.072;2022-08-21T05:19:33;24.80;52.00
7736;DHT22;3911;48.830;9.072;2022-08-21T05:22:01;24.90;52.00
7736;DHT22;3911;48.830;9.072;2022-08-21T05:24:28;24.80;51.90
7736;DHT22;3911;48.830;9.072;2022-08-21T05:26:54;24.80;51.80
7736;DHT22;3911;48.830;9.072;2022-08-21T05:29:21;24.80;51.80
7736;DHT22;3911;48.830;9.072;2022-08-21T05:31:48;24.80;51.80
7736;DHT22;3911;48.830;9.072;2022-08-21T05:34:17;24.80;51.80
7736;DHT22;3911;48.830;9.072;2022-08-21T05:36:41;24.80;51.80
7736;DHT22;3911;48.830;9.072;2022-08-21T05:39:07;24.80;51.80
7736;DHT22;3911;48.830;9.072;2022-08-21T05:41:34;24.80;51.80
7736;DHT22;3911;48.830;9.072;2022-08-21T05:44:01;24.80;51.70
7736;DHT22;3911;48.830;9.072;2022-08-21T05:46:29;24.80;51.70
7736;DHT22;3911;48.830;9.072;2022-08-21T05:48:56;24.80;51.80
7736;DHT22;3911;48.830;9.072;2022-08-21T05:51:23;24.80;51.80
7736;DHT22;3911;48.830;9.072;2022-08-21T05:53:49;24.80;51.70
7736;DHT22;3911;48.830;9.072;2022-08-21T05:56:16;24.80;51.70
7736;DHT22;3911;48.830;9.072;2022-08-21T05:58:42;24.80;51.70
7736;DHT22;3911;48.830;9.072;2022-08-21T06:01:09;24.90;51.80
7736;DHT22;3911;48.830;9.072;2022-08-21T06:03:39;24.80;51.70
7736;DHT22;3911;48.830;9.072;2022-08-21T06:06:03;24.80;51.70
7736;DHT22;3911;48.830;9.072;2022-08-21T06:08:29;24.80;51.70
7736;DHT22;3911;48.830;9.072;2022-08-21T06:10:57;24.80;51.70
7736;DHT22;3911;48.830;9.072;2022-08-21T06:13:22;24.80;51.70
7736;DHT22;3911;48.830;9.072;2022-08-21T06:15:49;24.80;51.70
7736;DHT22;3911;48.830;9.072;2022-08-21T06:18:16;24.80;51.80
7736;DHT22;3911;48.830;9.072;2022-08-21T06:20:44;24.80;51.80
7736;DHT22;3911;48.830;9.072;2022-08-21T06:23:11;24.80;51.80
7736;DHT22;3911;48.830;9.072;2022-08-21T06:25:38;24.80;51.70
7736;DHT22;3911;48.830;9.072;2022-08-21T06:28:06;24.80;52.40
7736;DHT22;3911;48.830;9.072;2022-08-21T06:30:34;24.80;51.80
7736;DHT22;3911;48.830;9.072;2022-08-21T06:33:00;24.80;51.70
7736;DHT22;3911;48.830;9.072;2022-08-21T06:35:27;24.80;51.70
7736;DHT22;3911;48.830;9.072;2022-08-21T06:37:53;24.80;51.80
7736;DHT22;3911;48.830;9.072;2022-08-21T06:40:21;24.80;51.80
7736;DHT22;3911;48.830;9.072;2022-08-21T06:42:48;24.80;51.80
7736;DHT22;3911;48.830;9.072;2022-08-21T06:45:16;24.80;51.80
7736;DHT22;3911;48.830;9.072;2022-08-21T06:47:43;24.80;51.80
7736;DHT22;3911;48.830;9.072;2022-08-21T06:50:11;24.80;51.80
7736;DHT22;3911;48.830;9.072;2022-08-21T06:52:38;24.80;52.50
7736;DHT22;3911;48.830;9.072;2022-08-21T06:55:06;24.80;51.80
7736;DHT22;3911;48.830;9.072;2022-08-21T06:57:32;24.80;51.80
7736;DHT22;3911;48.830;9.072;2022-08-21T06:59:58;24.80;51.80
7736;DHT22;3911;48.830;9.072;2022-08-21T07:02:25;24.80;51.80
7736;DHT22;3911;48.830;9.072;2022-08-21T07:04:51;24.80;51.80
7736;DHT22;3911;48.830;9.072;2022-08-21T07:07:19;24.80;51.90
7736;DHT22;3911;48.830;9.072;2022-08-21T07:09:46;24.80;51.90
7736;DHT22;3911;48.830;9.072;2022-08-21T07:12:13;24.80;51.90
7736;DHT22;3911;48.830;9.072;2022-08-21T07:14:41;24.80;51.90
7736;DHT22;3911;48.830;9.072;2022-08-21T07:17:08;24.80;51.90
7736;DHT22;3911;48.830;9.072;2022-08-21T07:19:36;24.80;51.90
7736;DHT22;3911;48.830;9.072;2022-08-21T07:22:03;24.80;52.00
7736;DHT22;3911;48.830;9.072;2022-08-21T07:24:29;24.80;51.90
7736;DHT22;3911;48.830;9.072;2022-08-21T07:26:56;24.80;52.00
7736;DHT22;3911;48.830;9.072;2022-08-21T07:29:23;24.80;52.00
7736;DHT22;3911;48.830;9.072;2022-08-21T07:31:50;24.80;52.00
7736;DHT22;3911;48.830;9.072;2022-08-21T07:34:17;24.80;52.00
7736;DHT22;3911;48.830;9.072;2022-08-21T07:36:45;24.80;52.00
7736;DHT22;3911;48.830;9.072;2022-08-21T07:39:12;24.80;52.00
7736;DHT22;3911;48.830;9.072;2022-08-21T07:41:39;24.80;52.00
7736;DHT22;3911;48.830;9.072;2022-08-21T07:44:07;24.80;52.00
7736;DHT22;3911;48.830;9.072;2022-08-21T07:46:34;24.80;52.00
7736;DHT22;3911;48.830;9.072;2022-08-21T07:49:01;24.80;52.00
7736;DHT22;3911;48.830;9.072;2022-08-21T07:51:28;24.80;52.00
7736;DHT22;3911;48.830;9.072;2022-08-21T07:53:55;24.80;52.00
7736;DHT22;3911;48.830;9.072;2022-08-21T07:56:21;24.80;52.00
7736;DHT22;3911;48.830;9.072;2022-08-21T07:58:47;24.80;52.00
7736;DHT22;3911;48.830;9.072;2022-08-21T08:01:14;24.80;52.00
7736;DHT22;3911;48.830;9.072;2022-08-21T08:03:41;24.80;52.00
7736;DHT22;3911;48.830;9.072;2022-08-21T08:06:08;24.80;52.00
7736;DHT22;3911;48.830;9.072;2022-08-21T08:08:35;24.80;52.00
7736;DHT22;3911;48.830;9.072;2022-08-21T08:11:02;24.80;52.00
7736;DHT22;3911;48.830;9.072;2022-08-21T08:13:28;24.80;52.00
7736;DHT22;3911;48.830;9.072;2022-08-21T08:15:55;24.80;52.00
7736;DHT22;3911;48.830;9.072;2022-08-21T08:18:21;24.80;52.00
7736;DHT22;3911;48.830;9.072;2022-08-21T08:20:48;24.80;52.00
7736;DHT22;3911;48.830;9.072;2022-08-21T08:23:15;24.80;52.00
7736;DHT22;3911;48.830;9.072;2022-08-21T08:25:42;24.80;52.00
7736;DHT22;3911;48.830;9.072;2022-08-21T08:28:09;24.80;52.00
7736;DHT22;3911;48.830;9.072;2022-08-21T08:30:37;24.80;52.00
7736;DHT22;3911;48.830;9.072;2022-08-21T08:33:04;24.80;52.00
7736;DHT22;3911;48.830;9.072;2022-08-21T08:35:31;24.80;52.00
7736;DHT22;3911;48.830;9.072;2022-08-21T08:37:58;24.80;52.00
7736;DHT22;3911;48.830;9.072;2022-08-21T08:40:28;24.80;52.00
7736;DHT22;3911;48.830;9.072;2022-08-21T08:42:51;24.80;52.00
7736;DHT22;3911;48.830;9.072;2022-08-21T08:45:20;24.80;52.00
7736;DHT22;3911;48.830;9.072;2022-08-21T08:47:47;24.80;52.00
7736;DHT22;3911;48.830;9.072;2022-08-21T08:50:18;24.80;52.00
7736;DHT22;3911;48.830;9.072;2022-08-21T08:52:49;24.80;52.00
7736;DHT22;3911;48.830;9.072;2022-08-21T08:55:14;24.90;52.10
7736;DHT22;3911;48.830;9.072;2022-08-21T08:57:42;24.90;52.10
7736;DHT22;3911;48.830;9.072;2022-08-21T09:00:09;24.90;52.10
7736;DHT22;3911;48.830;9.072;2022-08-21T09:02:35;24.90;52.10
7736;DHT22;3911;48.830;9.072;2022-08-21T09:05:03;24.90;52.10
7736;DHT22;3911;48.830;9.072;2022-08-21T09:07:40;24.90;52.10
7736;DHT22;3911;48.830;9.072;2022-08-21T09:10:13;24.90;52.10
7736;DHT22;3911;48.830;9.072;2022-08-21T09:12:39;24.90;52.10
7736;DHT22;3911;48.830;9.072;2022-08-21T09:15:14;24.90;52.10
7736;DHT22;3911;48.830;9.072;2022-08-21T09:17:48;24.90;52.10
7736;DHT22;3911;48.830;9.072;2022-08-21T09:21:17;24.90;52.10
7736;DHT22;3911;48.830;9.072;2022-08-21T09:23:13;24.90;52.10
7736;DHT22;3911;48.830;9.072;2022-08-21T09:25:40;24.90;52.00
7736;DHT22;3911;48.830;9.072;2022-08-21T09:28:01;24.90;52.10
7736;DHT22;3911;48.830;9.072;2022-08-21T09:30:31;24.90;52.10
7736;DHT22;3911;48.830;9.072;2022-08-21T09:32:55;24.90;52.10
7736;DHT22;3911;48.830;9.072;2022-08-21T09:35:22;24.90;52.10
7736;DHT22;3911;48.830;9.072;2022-08-21T09:37:58;24.90;52.10
7736;DHT22;3911;48.830;9.072;2022-08-21T09:40:31;24.90;52.10
7736;DHT22;3911;48.830;9.072;2022-08-21T09:43:03;24.90;52.10
7736;DHT22;3911;48.830;9.072;2022-08-21T09:45:29;24.90;52.10
7736;DHT22;3911;48.830;9.072;2022-08-21T09:47:56;24.90;52.10
7736;DHT22;3911;48.830;9.072;2022-08-21T09:50:23;24.90;52.10
7736;DHT22;3911;48.830;9.072;2022-08-21T09:52:51;24.90;52.00
7736;DHT22;3911;48.830;9.072;2022-08-21T09:55:21;24.90;52.00
7736;DHT22;3911;48.830;9.072;2022-08-21T09:57:51;24.90;52.00
7736;DHT22;3911;48.830;9.072;2022-08-21T10:00:24;24.90;52.00
7736;DHT22;3911;48.830;9.072;2022-08-21T10:02:45;24.90;52.00
7736;DHT22;3911;48.830;9.072;2022-08-21T10:05:18;24.90;52.00
7736;DHT22;3911;48.830;9.072;2022-08-21T10:07:43;25.00;52.10
7736;DHT22;3911;48.830;9.072;2022-08-21T10:10:19;25.00;52.10
7736;DHT22;3911;48.830;9.072;2022-08-21T10:13:02;25.00;52.10
7736;DHT22;3911;48.830;9.072;2022-08-21T10:15:40;24.90;52.10
7736;DHT22;3911;48.830;9.072;2022-08-21T10:18:09;25.00;52.10
7736;DHT22;3911;48.830;9.072;2022-08-21T10:20:44;25.00;52.10
7736;DHT22;3911;48.830;9.072;2022-08-21T10:23:35;25.00;52.10
7736;DHT22;3911;48.830;9.072;2022-08-21T10:26:08;25.00;52.10
7736;DHT22;3911;48.830;9.072;2022-08-21T10:28:36;25.00;52.10
7736;DHT22;3911;48.830;9.072;2022-08-21T10:31:18;25.00;52.10
7736;DHT22;3911;48.830;9.072;2022-08-21T10:33:45;25.00;52.20
7736;DHT22;3911;48.830;9.072;2022-08-21T10:36:15;25.00;52.20
7736;DHT22;3911;48.830;9.072;2022-08-21T10:38:52;25.00;52.20
7736;DHT22;3911;48.830;9.072;2022-08-21T10:41:20;24.90;52.10
7736;DHT22;3911;48.830;9.072;2022-08-21T10:43:59;25.00;52.20
7736;DHT22;3911;48.830;9.072;2022-08-21T10:49:28;25.00;52.10
7736;DHT22;3911;48.830;9.072;2022-08-21T10:52:02;25.00;52.10
7736;DHT22;3911;48.830;9.072;2022-08-21T10:54:33;25.00;52.10
7736;DHT22;3911;48.830;9.072;2022-08-21T10:57:00;25.00;52.20
7736;DHT22;3911;48.830;9.072;2022-08-21T10:59:31;25.00;52.20
7736;DHT22;3911;48.830;9.072;2022-08-21T11:02:03;25.00;52.20
7736;DHT22;3911;48.830;9.072;2022-08-21T11:04:32;25.00;52.10
7736;DHT22;3911;48.830;9.072;2022-08-21T11:07:03;25.00;52.20
7736;DHT22;3911;48.830;9.072;2022-08-21T11:09:28;25.10;52.20
7736;DHT22;3911;48.830;9.072;2022-08-21T11:12:12;25.10;52.20
7736;DHT22;3911;48.830;9.072;2022-08-21T11:15:15;25.10;52.20
7736;DHT22;3911;48.830;9.072;2022-08-21T11:17:24;25.10;52.20
7736;DHT22;3911;48.830;9.072;2022-08-21T11:19:52;25.10;52.20
7736;DHT22;3911;48.830;9.072;2022-08-21T11:22:18;25.10;52.20
7736;DHT22;3911;48.830;9.072;2022-08-21T11:24:49;25.10;52.20
7736;DHT22;3911;48.830;9.072;2022-08-21T11:27:33;25.10;52.20
7736;DHT22;3911;48.830;9.072;2022-08-21T11:29:56;25.10;52.20
7736;DHT22;3911;48.830;9.072;2022-08-21T11:35:32;25.10;52.20
7736;DHT22;3911;48.830;9.072;2022-08-21T11:38:03;25.10;52.20
7736;DHT22;3911;48.830;9.072;2022-08-21T11:40:40;25.10;52.20
7736;DHT22;3911;48.830;9.072;2022-08-21T11:45:38;25.10;52.20
7736;DHT22;3911;48.830;9.072;2022-08-21T11:48:25;25.10;52.20
7736;DHT22;3911;48.830;9.072;2022-08-21T11:50:43;25.10;52.20
7736;DHT22;3911;48.830;9.072;2022-08-21T11:53:12;25.10;52.20
7736;DHT22;3911;48.830;9.072;2022-08-21T11:55:43;25.10;52.20
7736;DHT22;3911;48.830;9.072;2022-08-21T11:58:11;25.20;52.20
7736;DHT22;3911;48.830;9.072;2022-08-21T12:00:39;25.20;52.20
7736;DHT22;3911;48.830;9.072;2022-08-21T12:03:11;25.20;52.20
7736;DHT22;3911;48.830;9.072;2022-08-21T12:05:39;25.20;52.20
7736;DHT22;3911;48.830;9.072;2022-08-21T12:08:08;25.10;52.20
7736;DHT22;3911;48.830;9.072;2022-08-21T12:10:35;25.20;52.20
7736;DHT22;3911;48.830;9.072;2022-08-21T12:13:08;25.20;52.20
7736;DHT22;3911;48.830;9.072;2022-08-21T12:15:33;25.20;52.20
7736;DHT22;3911;48.830;9.072;2022-08-21T12:18:03;25.20;52.10
7736;DHT22;3911;48.830;9.072;2022-08-21T12:20:41;25.20;52.10
7736;DHT22;3911;48.830;9.072;2022-08-21T12:23:17;25.20;52.80
7736;DHT22;3911;48.830;9.072;2022-08-21T12:25:59;25.20;52.10
7736;DHT22;3911;48.830;9.072;2022-08-21T12:28:15;25.20;52.10
7736;DHT22;3911;48.830;9.072;2022-08-21T12:30:42;25.20;52.00
7736;DHT22;3911;48.830;9.072;2022-08-21T12:33:18;25.30;52.00
7736;DHT22;3911;48.830;9.072;2022-08-21T12:35:44;25.40;51.90
7736;DHT22;3911;48.830;9.072;2022-08-21T12:38:14;25.50;51.70
7736;DHT22;3911;48.830;9.072;2022-08-21T12:40:41;25.50;51.60
7736;DHT22;3911;48.830;9.072;2022-08-21T12:43:11;25.60;51.50
7736;DHT22;3911;48.830;9.072;2022-08-21T12:45:40;25.60;51.40
7736;DHT22;3911;48.830;9.072;2022-08-21T12:48:07;25.60;51.40
7736;DHT22;3911;48.830;9.072;2022-08-21T12:50:38;25.70;51.30
7736;DHT22;3911;48.830;9.072;2022-08-21T12:53:07;25.70;51.20
7736;DHT22;3911;48.830;9.072;2022-08-21T12:55:33;25.80;51.10
7736;DHT22;3911;48.830;9.072;2022-08-21T12:57:59;25.80;51.10
7736;DHT22;3911;48.830;9.072;2022-08-21T13:00:27;25.80;51.00
7736;DHT22;3911;48.830;9.072;2022-08-21T13:02:53;25.80;51.10
7736;DHT22;3911;48.830;9.072;2022-08-21T13:05:25;25.80;51.00
7736;DHT22;3911;48.830;9.072;2022-08-21T13:07:47;25.80;51.00
7736;DHT22;3911;48.830;9.072;2022-08-21T13:10:16;25.80;51.00
7736;DHT22;3911;48.830;9.072;2022-08-21T13:12:40;25.90;50.80
7736;DHT22;3911;48.830;9.072;2022-08-21T13:15:08;26.00;50.70
7736;DHT22;3911;48.830;9.072;2022-08-21T13:17:36;26.00;50.70
7736;DHT22;3911;48.830;9.072;2022-08-21T13:20:04;26.00;50.60
7736;DHT22;3911;48.830;9.072;2022-08-21T13:22:29;26.10;50.60
7736;DHT22;3911;48.830;9.072;2022-08-21T13:24:57;26.00;50.50
7736;DHT22;3911;48.830;9.072;2022-08-21T13:27:26;26.10;50.40
7736;DHT22;3911;48.830;9.072;2022-08-21T13:30:00;26.10;50.40
7736;DHT22;3911;48.830;9.072;2022-08-21T13:32:27;26.10;50.50
7736;DHT22;3911;48.830;9.072;2022-08-21T13:34:54;26.00;50.60
7736;DHT22;3911;48.830;9.072;2022-08-21T13:37:21;26.20;50.50
7736;DHT22;3911;48.830;9.072;2022-08-21T13:39:51;26.20;50.20
7736;DHT22;3911;48.830;9.072;2022-08-21T13:42:16;26.20;50.20
7736;DHT22;3911;48.830;9.072;2022-08-21T13:44:44;26.30;50.00
7736;DHT22;3911;48.830;9.072;2022-08-21T13:47:11;26.40;49.90
7736;DHT22;3911;48.830;9.072;2022-08-21T13:49:40;26.40;49.90
7736;DHT22;3911;48.830;9.072;2022-08-21T13:52:13;26.40;49.80
7736;DHT22;3911;48.830;9.072;2022-08-21T13:54:34;26.50;49.80
7736;DHT22;3911;48.830;9.072;2022-08-21T13:57:00;26.50;49.70
7736;DHT22;3911;48.830;9.072;2022-08-21T13:59:32;26.60;49.60
7736;DHT22;3911;48.830;9.072;2022-08-21T14:02:15;26.50;49.50
7736;DHT22;3911;48.830;9.072;2022-08-21T14:04:50;26.60;49.40
7736;DHT22;3911;48.830;9.072;2022-08-21T14:07:17;26.70;49.30
7736;DHT22;3911;48.830;9.072;2022-08-21T14:09:43;26.70;49.30
7736;DHT22;3911;48.830;9.072;2022-08-21T14:12:17;26.70;49.30
7736;DHT22;3911;48.830;9.072;2022-08-21T14:14:42;26.80;49.20
7736;DHT22;3911;48.830;9.072;2022-08-21T14:17:10;26.80;49.10
7736;DHT22;3911;48.830;9.072;2022-08-21T14:19:39;26.70;49.00
7736;DHT22;3911;48.830;9.072;2022-08-21T14:24:43;26.30;49.60
7736;DHT22;3911;48.830;9.072;2022-08-21T14:27:10;26.20;50.10
7736;DHT22;3911;48.830;9.072;2022-08-21T14:29:39;26.20;50.10
7736;DHT22;3911;48.830;9.072;2022-08-21T14:32:11;26.40;50.00
7736;DHT22;3911;48.830;9.072;2022-08-21T14:34:35;26.60;49.60
7736;DHT22;3911;48.830;9.072;2022-08-21T14:37:02;26.60;49.70
7736;DHT22;3911;48.830;9.072;2022-08-21T14:39:28;26.40;48.80
7736;DHT22;3911;48.830;9.072;2022-08-21T14:41:56;26.50;49.30
7736;DHT22;3911;48.830;9.072;2022-08-21T14:44:23;26.70;48.50
7736;DHT22;3911;48.830;9.072;2022-08-21T14:46:50;26.80;48.00
7736;DHT22;3911;48.830;9.072;2022-08-21T14:49:18;26.80;47.60
7736;DHT22;3911;48.830;9.072;2022-08-21T14:51:45;26.60;47.60
7736;DHT22;3911;48.830;9.072;2022-08-21T14:54:12;26.60;46.90
7736;DHT22;3911;48.830;9.072;2022-08-21T14:56:38;26.40;47.30
7736;DHT22;3911;48.830;9.072;2022-08-21T14:59:06;26.50;46.60
7736;DHT22;3911;48.830;9.072;2022-08-21T15:01:32;26.50;45.60
7736;DHT22;3911;48.830;9.072;2022-08-21T15:03:58;26.60;44.90
7736;DHT22;3911;48.830;9.072;2022-08-21T15:06:25;26.60;44.00
7736;DHT22;3911;48.830;9.072;2022-08-21T15:08:51;26.40;44.20
7736;DHT22;3911;48.830;9.072;2022-08-21T15:11:19;26.20;43.10
7736;DHT22;3911;48.830;9.072;2022-08-21T15:13:46;26.10;43.50
7736;DHT22;3911;48.830;9.072;2022-08-21T15:16:13;26.10;44.50
7736;DHT22;3911;48.830;9.072;2022-08-21T15:18:41;26.40;43.30
7736;DHT22;3911;48.830;9.072;2022-08-21T15:21:07;26.40;43.30
7736;DHT22;3911;48.830;9.072;2022-08-21T15:23:34;26.60;42.70
7736;DHT22;3911;48.830;9.072;2022-08-21T15:26:00;26.60;42.40
7736;DHT22;3911;48.830;9.072;2022-08-21T15:28:27;26.70;43.60
7736;DHT22;3911;48.830;9.072;2022-08-21T15:30:53;26.70;42.40
7736;DHT22;3911;48.830;9.072;2022-08-21T15:33:20;26.80;44.30
7736;DHT22;3911;48.830;9.072;2022-08-21T15:35:47;26.80;41.60
7736;DHT22;3911;48.830;9.072;2022-08-21T15:38:14;26.70;41.90
7736;DHT22;3911;48.830;9.072;2022-08-21T15:40:42;26.80;41.10
7736;DHT22;3911;48.830;9.072;2022-08-21T15:43:19;26.80;41.30
7736;DHT22;3911;48.830;9.072;2022-08-21T15:45:36;26.80;41.70
7736;DHT22;3911;48.830;9.072;2022-08-21T15:48:03;26.80;41.60
7736;DHT22;3911;48.830;9.072;2022-08-21T15:50:29;26.70;40.90
7736;DHT22;3911;48.830;9.072;2022-08-21T15:52:56;26.70;41.00
7736;DHT22;3911;48.830;9.072;2022-08-21T15:55:23;26.60;41.30
7736;DHT22;3911;48.830;9.072;2022-08-21T15:57:50;26.60;41.30
7736;DHT22;3911;48.830;9.072;2022-08-21T16:00:19;26.60;41.90
7736;DHT22;3911;48.830;9.072;2022-08-21T16:02:46;26.50;41.80
7736;DHT22;3911;48.830;9.072;2022-08-21T16:05:12;26.50;41.70
7736;DHT22;3911;48.830;9.072;2022-08-21T16:07:38;26.40;41.70
7736;DHT22;3911;48.830;9.072;2022-08-21T16:10:05;26.40;41.90
7736;DHT22;3911;48.830;9.072;2022-08-21T16:12:32;26.40;42.40
7736;DHT22;3911;48.830;9.072;2022-08-21T16:14:59;26.30;42.50
7736;DHT22;3911;48.830;9.072;2022-08-21T16:17:28;26.30;42.60